Aviation Digital Data Service (ADDS)

Output produced by TAFs form (0954 UTC 22 September 2017)
found at http://www.aviationweather.gov/adds/tafs/
 
METAR text: RJAW 220900Z 12005KT 9999 FEW010 SCT230 28/25 Q1015 RMK 1CU010 A2998
Conditions at: RJAW (IWOJIMA (JMSDF) , JP) observed 0900 UTC 22 September 2017
Temperature: 28.0°C (82°F)
Dewpoint: 25.0°C (77°F) [RH = 84%]
Pressure (altimeter): 29.97 inches Hg (1015.0 mb)
Winds: from the ESE (120 degrees) at 6 MPH (5 knots; 2.6 m/s)
Visibility: 6 or more miles (10+ km)
Ceiling: at least 12,000 feet AGL
Clouds: few clouds at 1000 feet AGL
scattered clouds at 23000 feet AGL
Weather: no significant weather observed at this time